createdAt,value
2017-06-24T00:00:22.840Z,61.89
2017-06-24T00:02:52.697Z,61.45
2017-06-24T00:05:21.841Z,61.44
2017-06-24T00:07:52.716Z,61.45
2017-06-24T00:10:22.804Z,61.35
2017-06-24T00:12:51.868Z,61.42
2017-06-24T00:15:20.942Z,61.73
2017-06-24T00:17:50.007Z,61.66
2017-06-24T00:20:19.829Z,61.67
2017-06-24T00:22:48.913Z,61.73
2017-06-24T00:25:18.223Z,61.76
2017-06-24T00:27:47.287Z,61.75
2017-06-24T00:30:16.383Z,61.94
2017-06-24T00:32:45.427Z,61.97
2017-06-24T00:35:14.545Z,62.34
2017-06-24T00:37:43.599Z,62.49
2017-06-24T00:40:13.507Z,62.16
2017-06-24T00:42:42.576Z,61.85
2017-06-24T00:45:11.644Z,61.86
2017-06-24T00:47:40.723Z,61.98
2017-06-24T00:50:09.833Z,61.94
2017-06-24T00:52:38.899Z,61.83
2017-06-24T00:55:07.966Z,62.00
2017-06-24T00:57:36.991Z,62.00
2017-06-24T01:00:06.245Z,61.98
2017-06-24T01:02:35.283Z,61.93
2017-06-24T01:05:04.450Z,62.13
2017-06-24T01:07:33.512Z,62.16
2017-06-24T01:10:02.580Z,62.22
2017-06-24T01:12:31.605Z,62.35
2017-06-24T01:15:00.683Z,62.50
2017-06-24T01:17:29.777Z,62.60
2017-06-24T01:19:58.827Z,62.89
2017-06-24T01:22:27.867Z,62.84
2017-06-24T01:24:56.920Z,62.94
2017-06-24T01:27:25.999Z,63.25
2017-06-24T01:29:55.068Z,63.54
2017-06-24T01:32:24.117Z,63.74
2017-06-24T01:34:53.196Z,63.89
2017-06-24T01:37:22.255Z,63.72
2017-06-24T01:39:51.306Z,64.02
2017-06-24T01:42:20.615Z,64.35
2017-06-24T01:44:49.669Z,64.22
2017-06-24T01:47:18.709Z,64.42
2017-06-24T01:49:47.824Z,64.82
2017-06-24T01:52:17.133Z,64.93
2017-06-24T01:54:46.184Z,65.09
2017-06-24T01:57:15.329Z,65.26
2017-06-24T01:59:44.383Z,65.37
2017-06-24T02:02:13.412Z,65.54
2017-06-24T02:04:42.515Z,65.62
2017-06-24T02:07:11.549Z,65.50
2017-06-24T02:09:40.624Z,65.63
2017-06-24T02:12:09.903Z,65.83
2017-06-24T02:14:38.936Z,65.85
2017-06-24T02:17:08.010Z,65.77
2017-06-24T02:19:37.075Z,66.01
2017-06-24T02:22:06.125Z,65.91
2017-06-24T02:24:35.536Z,65.93
2017-06-24T02:27:04.631Z,66.04
2017-06-24T02:29:33.688Z,66.17
2017-06-24T02:32:02.748Z,66.78
2017-06-24T02:34:32.063Z,66.94
2017-06-24T02:37:01.128Z,67.30
2017-06-24T02:39:30.205Z,67.41
2017-06-24T02:41:59.248Z,67.55
2017-06-24T02:44:28.307Z,67.66
2017-06-24T02:46:57.359Z,67.65
2017-06-24T02:49:26.404Z,67.87
2017-06-24T02:51:55.510Z,67.78
2017-06-24T02:54:24.559Z,67.89
2017-06-24T02:56:53.647Z,67.82
2017-06-24T02:59:22.743Z,67.91
2017-06-24T03:01:51.770Z,68.14
2017-06-24T03:04:20.863Z,68.25
2017-06-24T03:06:49.925Z,68.49
2017-06-24T03:09:18.983Z,68.46
2017-06-24T03:11:48.032Z,68.49
2017-06-24T03:14:17.090Z,68.67
2017-06-24T03:16:46.405Z,68.63
2017-06-24T03:19:15.466Z,68.70
2017-06-24T03:21:44.548Z,68.86
2017-06-24T03:24:13.616Z,68.74
2017-06-24T03:26:42.670Z,68.71
2017-06-24T03:29:11.837Z,68.79
2017-06-24T03:31:40.891Z,68.85
2017-06-24T03:34:09.988Z,68.90
2017-06-24T03:36:39.067Z,68.95
2017-06-24T03:39:08.130Z,68.89
2017-06-24T03:41:37.184Z,69.13
2017-06-24T03:44:06.283Z,69.03
2017-06-24T03:46:35.308Z,69.07
2017-06-24T03:49:04.364Z,69.10
2017-06-24T03:51:33.415Z,68.96
2017-06-24T03:54:02.483Z,69.30
2017-06-24T03:56:31.532Z,68.93
2017-06-24T03:59:00.612Z,68.73
2017-06-24T04:01:29.758Z,68.66
2017-06-24T04:03:58.827Z,68.47
2017-06-24T04:06:27.887Z,68.34
2017-06-24T04:08:56.940Z,68.18
2017-06-24T04:11:25.992Z,68.13
2017-06-24T04:13:55.067Z,68.12
2017-06-24T04:16:24.116Z,68.11
2017-06-24T04:18:53.204Z,68.41
2017-06-24T04:21:22.268Z,68.45
2017-06-24T04:23:51.314Z,68.33
2017-06-24T04:26:20.376Z,68.48
2017-06-24T04:28:49.436Z,68.15
2017-06-24T04:31:18.483Z,68.34
2017-06-24T04:33:47.527Z,68.16
2017-06-24T04:36:16.588Z,68.32
2017-06-24T04:38:45.639Z,68.29
2017-06-24T04:41:14.703Z,68.06
2017-06-24T04:43:43.788Z,68.10
2017-06-24T04:46:12.878Z,68.19
2017-06-24T04:48:41.925Z,67.82
2017-06-24T04:51:10.981Z,67.84
2017-06-24T04:53:40.153Z,67.86
2017-06-24T04:56:09.228Z,67.89
2017-06-24T04:58:38.305Z,67.67
2017-06-24T05:01:07.380Z,67.59
2017-06-24T05:03:36.523Z,67.63
2017-06-24T05:06:05.572Z,67.23
2017-06-24T05:08:34.872Z,67.52
2017-06-24T05:11:03.956Z,67.68
2017-06-24T05:13:33.004Z,67.55
2017-06-24T05:16:02.065Z,67.54
2017-06-24T05:18:31.128Z,67.10
2017-06-24T05:21:00.200Z,67.12
2017-06-24T05:23:29.251Z,66.83
2017-06-24T05:25:58.332Z,66.70
2017-06-24T05:28:27.408Z,66.97
2017-06-24T05:30:56.465Z,66.96
2017-06-24T05:33:25.532Z,67.22
2017-06-24T05:35:54.608Z,66.64
2017-06-24T05:38:23.644Z,66.69
2017-06-24T05:40:52.739Z,66.92
2017-06-24T05:43:21.783Z,66.72
2017-06-24T05:45:50.879Z,66.39
2017-06-24T05:48:19.939Z,66.43
2017-06-24T05:50:49.019Z,66.53
2017-06-24T05:53:18.072Z,66.23
2017-06-24T05:55:47.147Z,66.21
2017-06-24T05:58:16.192Z,66.33
2017-06-24T06:00:45.280Z,66.60
2017-06-24T06:03:14.365Z,66.77
2017-06-24T06:05:43.482Z,66.33
2017-06-24T06:08:12.796Z,65.96
2017-06-24T06:10:41.866Z,66.05
2017-06-24T06:13:10.904Z,65.71
2017-06-24T06:15:39.967Z,65.68
2017-06-24T06:18:09.036Z,65.90
2017-06-24T06:20:38.120Z,65.85
2017-06-24T06:23:07.173Z,65.83
2017-06-24T06:25:36.265Z,66.01
2017-06-24T06:28:05.369Z,65.76
2017-06-24T06:30:34.435Z,65.53
2017-06-24T06:33:03.487Z,65.51
2017-06-24T06:35:32.569Z,65.50
2017-06-24T06:38:01.634Z,65.14
2017-06-24T06:40:30.684Z,65.00
2017-06-24T06:42:59.746Z,65.26
2017-06-24T06:45:28.958Z,64.96
2017-06-24T06:47:58.008Z,64.90
2017-06-24T06:50:27.100Z,64.68
2017-06-24T06:52:56.157Z,64.85
2017-06-24T06:55:25.204Z,64.46
2017-06-24T06:57:54.286Z,64.28
2017-06-24T07:00:23.332Z,64.72
2017-06-24T07:02:52.408Z,64.68
2017-06-24T07:05:21.471Z,64.10
2017-06-24T07:07:50.529Z,63.90
2017-06-24T07:10:19.656Z,63.18
2017-06-24T07:12:48.928Z,63.48
2017-06-24T07:15:18.043Z,62.89
2017-06-24T07:17:47.109Z,63.04
2017-06-24T07:20:16.176Z,62.79
2017-06-24T07:22:45.235Z,62.65
2017-06-24T07:25:14.300Z,62.66
2017-06-24T07:27:43.345Z,62.26
2017-06-24T07:30:12.464Z,62.19
2017-06-24T07:32:41.517Z,62.16
2017-06-24T07:35:10.608Z,61.86
2017-06-24T07:37:39.692Z,61.81
2017-06-24T07:40:08.820Z,61.79
2017-06-24T07:42:37.878Z,61.88
2017-06-24T07:45:06.981Z,61.76
2017-06-24T07:47:36.032Z,61.90
2017-06-24T07:50:05.089Z,61.28
2017-06-24T07:52:34.121Z,61.35
2017-06-24T07:55:03.210Z,61.53
2017-06-24T07:57:32.236Z,61.22
2017-06-24T08:00:01.340Z,60.88
2017-06-24T08:02:30.624Z,61.13
2017-06-24T08:04:59.675Z,61.01
2017-06-24T08:07:28.779Z,60.30
2017-06-24T08:09:57.843Z,59.75
2017-06-24T08:12:29.061Z,59.27
2017-06-24T08:14:58.125Z,58.42
2017-06-24T08:17:27.191Z,57.96
2017-06-24T08:19:56.277Z,57.52
2017-06-24T08:22:26.088Z,57.55
2017-06-24T08:24:55.920Z,56.81
2017-06-24T08:27:25.005Z,56.31
2017-06-24T08:29:54.053Z,55.41
2017-06-24T08:32:23.128Z,55.11
2017-06-24T08:34:52.176Z,54.31
2017-06-24T08:37:22.029Z,53.97
2017-06-24T08:39:51.092Z,54.39
2017-06-24T08:42:20.154Z,54.27
2017-06-24T08:44:49.228Z,54.47
2017-06-24T08:47:18.288Z,54.14
2017-06-24T08:49:47.367Z,53.34
2017-06-24T08:52:17.180Z,53.53
2017-06-24T08:54:47.066Z,54.54
2017-06-24T08:57:16.154Z,53.04
2017-06-24T08:59:45.456Z,53.51
2017-06-24T09:02:14.531Z,53.50
2017-06-24T09:04:43.584Z,53.32
2017-06-24T09:07:13.408Z,53.17
2017-06-24T09:09:42.454Z,51.50
2017-06-24T09:12:11.875Z,50.45
2017-06-24T09:14:40.912Z,50.04
2017-06-24T09:17:10.049Z,49.88
2017-06-24T09:19:39.127Z,49.28
2017-06-24T09:22:08.196Z,49.32
2017-06-24T09:24:37.256Z,48.76
2017-06-24T09:27:07.187Z,48.75
2017-06-24T09:29:36.256Z,48.86
2017-06-24T09:32:05.359Z,49.17
2017-06-24T09:34:34.409Z,49.65
2017-06-24T09:37:03.449Z,49.29
2017-06-24T09:39:33.269Z,50.17
2017-06-24T09:42:03.132Z,50.04
2017-06-24T09:44:32.183Z,49.83
2017-06-24T09:47:01.289Z,49.86
2017-06-24T09:49:30.341Z,49.61
2017-06-24T09:51:59.424Z,50.10
2017-06-24T09:54:28.636Z,50.71
2017-06-24T09:56:57.703Z,51.33
2017-06-24T09:59:26.786Z,51.29
2017-06-24T10:01:55.845Z,52.00
2017-06-24T10:04:24.922Z,52.30
2017-06-24T10:06:54.032Z,52.48
2017-06-24T10:09:23.848Z,52.93
2017-06-24T10:11:53.700Z,53.01
2017-06-24T10:14:22.761Z,52.65
2017-06-24T10:16:52.585Z,52.92
2017-06-24T10:19:21.946Z,52.88
2017-06-24T10:21:51.261Z,52.79
2017-06-24T10:24:20.333Z,52.68
2017-06-24T10:26:49.385Z,52.56
2017-06-24T10:29:18.440Z,52.87
2017-06-24T10:31:47.537Z,53.32
2017-06-24T10:34:16.723Z,52.99
2017-06-24T10:36:45.761Z,53.21
2017-06-24T10:39:14.842Z,53.50
2017-06-24T10:41:44.148Z,53.04
2017-06-24T10:44:13.252Z,53.25
2017-06-24T10:46:42.304Z,52.95
2017-06-24T10:49:11.434Z,52.80
2017-06-24T10:51:40.493Z,53.10
2017-06-24T10:54:09.588Z,52.93
2017-06-24T10:56:38.660Z,52.16
2017-06-24T10:59:07.716Z,52.43
2017-06-24T11:01:36.769Z,52.75
2017-06-24T11:04:05.862Z,52.47
2017-06-24T11:06:35.114Z,52.41
2017-06-24T11:09:04.747Z,52.65
2017-06-24T11:11:33.826Z,52.77
2017-06-24T11:14:02.871Z,53.11
2017-06-24T11:16:31.950Z,53.10
2017-06-24T11:19:01.004Z,52.71
2017-06-24T11:21:30.498Z,52.88
2017-06-24T11:23:59.556Z,53.83
2017-06-24T11:26:28.612Z,53.73
2017-06-24T11:28:57.700Z,53.90
2017-06-24T11:31:26.765Z,54.23
2017-06-24T11:33:55.844Z,54.48
2017-06-24T11:36:24.904Z,54.75
2017-06-24T11:38:53.973Z,54.26
2017-06-24T11:41:23.044Z,54.23
2017-06-24T11:43:52.159Z,54.45
2017-06-24T11:46:21.223Z,53.78
2017-06-24T11:48:50.284Z,54.36
2017-06-24T11:51:19.329Z,53.88
2017-06-24T11:53:48.456Z,53.80
2017-06-24T11:56:17.520Z,53.79
2017-06-24T11:58:46.591Z,54.18
2017-06-24T12:01:15.668Z,54.76
2017-06-24T12:03:44.765Z,54.77
2017-06-24T12:06:13.817Z,55.03
2017-06-24T12:08:42.865Z,54.74
2017-06-24T12:11:12.053Z,55.07
2017-06-24T12:13:41.093Z,55.42
2017-06-24T12:16:10.170Z,55.00
2017-06-24T12:18:40.034Z,54.84
2017-06-24T12:21:09.603Z,55.25
2017-06-24T12:23:39.429Z,55.72
2017-06-24T12:26:08.492Z,55.55
2017-06-24T12:28:37.548Z,55.32
2017-06-24T12:31:06.596Z,55.93
2017-06-24T12:33:35.698Z,56.22
2017-06-24T12:36:04.765Z,56.47
2017-06-24T12:38:34.136Z,56.70
2017-06-24T12:41:03.236Z,56.31
2017-06-24T12:43:32.297Z,55.66
2017-06-24T12:46:01.393Z,55.50
2017-06-24T12:48:30.415Z,55.83
2017-06-24T12:50:59.724Z,56.37
2017-06-24T12:53:28.803Z,56.04
2017-06-24T12:55:57.865Z,55.96
2017-06-24T12:58:26.959Z,55.49
2017-06-24T13:00:56.013Z,55.50
2017-06-24T13:03:25.058Z,55.97
2017-06-24T13:05:54.132Z,55.93
2017-06-24T13:08:23.977Z,56.27
2017-06-24T13:11:23.911Z,56.65
2017-06-24T13:13:52.992Z,56.28
2017-06-24T13:16:22.315Z,56.92
2017-06-24T13:18:51.387Z,56.49
2017-06-24T13:21:20.492Z,55.90
2017-06-24T13:23:49.561Z,55.35
2017-06-24T13:26:18.608Z,55.78
2017-06-24T13:28:47.705Z,56.28
2017-06-24T13:31:16.797Z,56.65
2017-06-24T13:33:45.877Z,57.43
2017-06-24T13:36:14.952Z,58.10
2017-06-24T13:38:44.165Z,58.43
2017-06-24T13:41:13.223Z,59.29
2017-06-24T13:43:42.300Z,59.44
2017-06-24T13:46:12.231Z,59.81
2017-06-24T13:48:41.261Z,60.08
2017-06-24T13:51:12.004Z,60.84
2017-06-24T13:53:41.326Z,60.75
2017-06-24T13:56:10.415Z,60.75
2017-06-24T13:58:39.557Z,60.78
2017-06-24T14:01:08.650Z,61.43
2017-06-24T14:03:38.476Z,61.44
2017-06-24T14:06:07.564Z,61.59
2017-06-24T14:08:37.348Z,61.65
2017-06-24T14:11:07.404Z,61.00
2017-06-24T14:13:36.504Z,61.32
2017-06-24T14:16:05.595Z,61.73
2017-06-24T14:18:35.384Z,61.97
2017-06-24T14:21:04.447Z,62.29
2017-06-24T14:23:33.536Z,62.28
2017-06-24T14:26:02.601Z,62.25
2017-06-24T14:28:31.669Z,62.34
2017-06-24T14:31:00.748Z,62.44
2017-06-24T14:33:29.775Z,62.58
2017-06-24T14:35:58.843Z,62.78
2017-06-24T14:38:28.679Z,63.28
2017-06-24T14:40:57.768Z,63.47
2017-06-24T14:43:26.833Z,63.71
2017-06-24T14:45:56.743Z,64.07
2017-06-24T14:48:25.772Z,63.85
2017-06-24T14:50:54.840Z,64.21
2017-06-24T14:53:24.697Z,63.99
2017-06-24T14:55:53.766Z,63.91
2017-06-24T14:58:22.834Z,64.15
2017-06-24T15:00:51.893Z,63.97
2017-06-24T15:03:20.963Z,64.04
2017-06-24T15:05:50.048Z,64.37
2017-06-24T15:08:19.392Z,64.25
2017-06-24T15:10:48.443Z,64.12
2017-06-24T15:13:18.052Z,64.45
2017-06-24T15:15:47.847Z,64.67
2017-06-24T15:18:17.676Z,64.72
2017-06-24T15:20:46.733Z,65.00
2017-06-24T15:23:15.787Z,65.04
2017-06-24T15:25:44.889Z,65.13
2017-06-24T15:28:13.956Z,65.47
2017-06-24T15:30:43.040Z,65.83
2017-06-24T15:33:12.894Z,65.92
2017-06-24T15:35:41.947Z,65.98
2017-06-24T15:38:11.775Z,66.13
2017-06-24T15:40:40.833Z,66.01
2017-06-24T15:43:09.887Z,65.96
2017-06-24T15:45:38.972Z,65.67
2017-06-24T15:48:08.042Z,65.56
2017-06-24T15:50:38.207Z,65.97
2017-06-24T15:53:07.253Z,65.75
2017-06-24T15:55:37.076Z,65.50
2017-06-24T15:58:06.133Z,66.24
2017-06-24T16:00:35.221Z,65.87
2017-06-24T16:03:04.292Z,65.83
2017-06-24T16:05:33.352Z,65.42
2017-06-24T16:08:03.220Z,65.95
2017-06-24T16:10:32.246Z,66.07
2017-06-24T16:13:02.108Z,65.84
2017-06-24T16:15:31.197Z,66.31
2017-06-24T16:18:00.262Z,66.49
2017-06-24T16:20:30.193Z,67.50
2017-06-24T16:22:59.278Z,67.77
2017-06-24T16:25:28.325Z,67.45
2017-06-24T16:27:57.389Z,67.55
2017-06-24T16:30:26.464Z,67.59
2017-06-24T16:32:55.520Z,67.59
2017-06-24T16:35:24.598Z,67.91
2017-06-24T16:37:53.657Z,67.72
2017-06-24T16:40:22.752Z,67.82
2017-06-24T16:42:51.828Z,67.98
2017-06-24T16:45:21.671Z,67.98
2017-06-24T16:47:50.776Z,67.83
2017-06-24T16:50:19.871Z,67.75
2017-06-24T16:52:48.944Z,67.74
2017-06-24T16:55:17.992Z,67.69
2017-06-24T16:57:47.316Z,67.52
2017-06-24T17:00:17.181Z,67.61
2017-06-24T17:02:46.243Z,67.61
2017-06-24T17:05:16.087Z,67.57
2017-06-24T17:07:45.155Z,67.73
2017-06-24T17:10:14.274Z,68.10
2017-06-24T17:12:43.365Z,68.19
2017-06-24T17:15:12.448Z,67.97
2017-06-24T17:17:41.779Z,68.38
2017-06-24T17:20:10.876Z,68.68
2017-06-24T17:22:39.986Z,68.89
2017-06-24T17:25:09.334Z,69.07
2017-06-24T17:27:39.159Z,68.91
2017-06-24T17:30:08.236Z,68.46
2017-06-24T17:32:37.315Z,68.45
2017-06-24T17:35:06.373Z,68.09
2017-06-24T17:37:35.453Z,68.18
2017-06-24T17:40:04.503Z,67.50
2017-06-24T17:42:33.600Z,66.83
2017-06-24T17:45:02.659Z,66.80
2017-06-24T17:47:31.713Z,66.67
2017-06-24T17:50:00.796Z,66.38
2017-06-24T17:52:29.861Z,66.28
2017-06-24T17:54:58.920Z,66.32
2017-06-24T17:57:27.973Z,66.43
2017-06-24T17:59:57.068Z,66.55
2017-06-24T18:02:26.141Z,66.71
2017-06-24T18:04:55.359Z,66.37
2017-06-24T18:07:24.400Z,66.16
2017-06-24T18:09:53.498Z,66.51
2017-06-24T18:12:22.605Z,66.29
2017-06-24T18:14:51.692Z,65.96
2017-06-24T18:17:20.751Z,66.18
2017-06-24T18:19:49.872Z,66.07
2017-06-24T18:22:18.944Z,66.08
2017-06-24T18:24:48.027Z,66.23
2017-06-24T18:27:17.125Z,65.99
2017-06-24T18:29:46.195Z,66.21
2017-06-24T18:32:16.167Z,66.51
2017-06-24T18:34:45.237Z,66.74
2017-06-24T18:37:14.308Z,66.98
2017-06-24T18:39:43.384Z,68.04
2017-06-24T18:42:12.562Z,68.01
2017-06-24T18:44:41.614Z,68.28
2017-06-24T18:47:10.692Z,69.66
2017-06-24T18:49:39.775Z,70.31
2017-06-24T18:52:08.984Z,71.28
2017-06-24T18:54:38.036Z,72.40
2017-06-24T18:57:07.139Z,73.04
2017-06-24T18:59:36.225Z,74.12
2017-06-24T19:02:05.401Z,75.56
2017-06-24T19:04:34.479Z,77.00
2017-06-24T19:07:03.564Z,78.06
2017-06-24T19:09:32.631Z,78.87
2017-06-24T19:12:01.984Z,79.82
2017-06-24T19:14:31.016Z,79.78
2017-06-24T19:17:00.159Z,80.31
2017-06-24T19:19:29.206Z,80.44
2017-06-24T19:21:58.276Z,81.20
2017-06-24T19:24:27.361Z,81.57
2017-06-24T19:26:56.451Z,81.80
2017-06-24T19:29:25.576Z,81.36
2017-06-24T19:31:54.663Z,82.19
2017-06-24T19:34:23.762Z,81.76
2017-06-24T19:36:53.034Z,81.94
2017-06-24T19:39:22.115Z,82.44
2017-06-24T19:41:51.174Z,82.54
2017-06-24T19:44:20.280Z,82.98
2017-06-24T19:46:49.364Z,83.74
2017-06-24T19:49:18.440Z,83.73
2017-06-24T19:51:47.553Z,83.73
2017-06-24T19:54:16.825Z,84.12
2017-06-24T19:56:45.893Z,84.92
2017-06-24T19:59:14.972Z,84.19
2017-06-24T20:01:44.078Z,84.57
2017-06-24T20:04:13.207Z,84.74
2017-06-24T20:06:42.301Z,85.00
2017-06-24T20:09:11.442Z,84.42
2017-06-24T20:11:40.503Z,84.54
2017-06-24T20:14:09.622Z,84.36
2017-06-24T20:16:38.708Z,84.44
2017-06-24T20:19:07.767Z,83.86
2017-06-24T20:21:36.845Z,83.93
2017-06-24T20:26:35.014Z,83.64
2017-06-24T20:29:04.079Z,83.93
2017-06-24T20:31:33.173Z,84.46
2017-06-24T20:34:02.268Z,83.47
2017-06-24T20:36:31.340Z,83.25
2017-06-24T20:39:00.383Z,83.17
2017-06-24T20:41:29.474Z,83.45
2017-06-24T20:43:58.529Z,83.25
2017-06-24T20:46:27.588Z,83.56
2017-06-24T20:48:56.666Z,83.21
2017-06-24T20:51:25.761Z,83.01
2017-06-24T20:53:54.820Z,83.77
2017-06-24T20:56:23.912Z,83.50
2017-06-24T20:58:52.965Z,84.33
2017-06-24T21:01:22.052Z,84.19
2017-06-24T21:03:51.136Z,84.22
2017-06-24T21:06:20.181Z,83.58
2017-06-24T21:08:49.248Z,83.54
2017-06-24T21:11:18.353Z,83.63
2017-06-24T21:13:47.428Z,83.66
2017-06-24T21:16:16.532Z,83.25
2017-06-24T21:18:45.576Z,83.84
2017-06-24T21:21:14.649Z,83.54
2017-06-24T21:23:43.721Z,83.52
2017-06-24T21:26:12.836Z,83.89
2017-06-24T21:28:41.906Z,83.99
2017-06-24T21:31:10.996Z,84.36
2017-06-24T21:33:40.055Z,84.32
2017-06-24T21:36:09.129Z,84.02
2017-06-24T21:38:38.233Z,83.83
2017-06-24T21:41:07.303Z,83.53
2017-06-24T21:43:36.392Z,83.51
2017-06-24T21:46:05.463Z,83.49
2017-06-24T21:48:34.522Z,83.90
2017-06-24T21:51:03.622Z,84.12
2017-06-24T21:53:32.724Z,84.13
2017-06-24T21:56:01.809Z,84.44
2017-06-24T21:58:30.843Z,84.16
2017-06-24T22:00:59.967Z,84.33
2017-06-24T22:03:29.039Z,83.98
2017-06-24T22:05:58.103Z,83.66
2017-06-24T22:08:27.216Z,83.86
2017-06-24T22:10:56.276Z,83.62
2017-06-24T22:13:25.347Z,83.43
2017-06-24T22:15:54.438Z,83.62
2017-06-24T22:18:23.479Z,83.56
2017-06-24T22:20:52.601Z,83.54
2017-06-24T22:23:21.662Z,83.73
2017-06-24T22:25:50.759Z,83.82
2017-06-24T22:28:19.816Z,83.92
2017-06-24T22:30:48.891Z,84.04
2017-06-24T22:33:17.965Z,83.98
2017-06-24T22:35:47.070Z,83.75
2017-06-24T22:38:16.145Z,83.83
2017-06-24T22:40:45.254Z,83.78
2017-06-24T22:43:14.364Z,83.45
2017-06-24T22:45:43.428Z,83.89
2017-06-24T22:48:12.522Z,83.89
2017-06-24T22:50:41.610Z,83.69
2017-06-24T22:53:10.758Z,83.59
2017-06-24T22:55:39.826Z,84.02
2017-06-24T22:58:08.944Z,83.85
2017-06-24T23:00:38.021Z,83.73
2017-06-24T23:03:07.142Z,83.75
2017-06-24T23:05:36.193Z,83.70
2017-06-24T23:08:05.261Z,83.53
2017-06-24T23:10:34.379Z,83.94
2017-06-24T23:13:03.494Z,84.22
2017-06-24T23:15:32.560Z,83.86
2017-06-24T23:18:01.636Z,84.17
2017-06-24T23:20:30.708Z,83.82
2017-06-24T23:22:59.770Z,83.84
2017-06-24T23:25:28.862Z,84.15
2017-06-24T23:27:57.929Z,83.78
2017-06-24T23:30:27.040Z,83.72
2017-06-24T23:32:56.324Z,83.62
2017-06-24T23:35:25.396Z,83.31
2017-06-24T23:37:54.476Z,84.11
2017-06-24T23:40:23.717Z,83.61
2017-06-24T23:42:52.777Z,83.77
2017-06-24T23:45:21.875Z,83.10
2017-06-24T23:47:50.936Z,83.42
2017-06-24T23:50:20.036Z,83.12
2017-06-24T23:52:49.135Z,83.04
2017-06-24T23:55:18.275Z,82.91
2017-06-24T23:57:47.302Z,83.02
